McGintytown, Arkansas
Current Conditions -  °F | °C
As of 11:58 AM on Saturday 25 Oct 2014 (Local Time) from KLRF Reporting Station
Clear Clear  
Wind Chill: 79°   Ceiling: Unl
Heat Index: 80°   Visibility: 10mi
Dew Point: 62°   Wind: 9mph
Humidity: 57%   Direction: 270°W
Pressure: 30.1"   Gusts: NA
Location:  35.2494°N, 92.313°W
Report Text: KLRF 251658Z AUTO 27008KT 10SM CLR 26/17 A3010 RMK AO2 SLP194 T02590169
Loading
Personal Weather Stations






























Interactive Weather Map
Tropical Storm Tracking
New forecast layout! Learn more

10-Day Weather Forecast

Advertisements
Track Severe Weather on mobile